sensor_id;sensor_type;location;lat;lon;timestamp;P1;durP1;ratioP1;P2;durP2;ratioP2
14167;SDS011;7163;50.626;12.922;2022-08-21T00:03:33;99.33;;;42.87;;
14167;SDS011;7163;50.626;12.922;2022-08-21T00:08:33;179.93;;;45.73;;
14167;SDS011;7163;50.626;12.922;2022-08-21T00:13:34;83.70;;;34.93;;
14167;SDS011;7163;50.626;12.922;2022-08-21T00:18:35;73.23;;;31.93;;
14167;SDS011;7163;50.626;12.922;2022-08-21T00:23:35;106.97;;;40.60;;
14167;SDS011;7163;50.626;12.922;2022-08-21T00:28:36;120.50;;;47.77;;
14167;SDS011;7163;50.626;12.922;2022-08-21T00:33:38;128.83;;;49.40;;
14167;SDS011;7163;50.626;12.922;2022-08-21T00:38:38;107.80;;;46.97;;
14167;SDS011;7163;50.626;12.922;2022-08-21T00:43:39;101.17;;;44.30;;
14167;SDS011;7163;50.626;12.922;2022-08-21T00:48:40;119.50;;;47.13;;
14167;SDS011;7163;50.626;12.922;2022-08-21T00:53:41;106.53;;;44.30;;
14167;SDS011;7163;50.626;12.922;2022-08-21T00:58:43;121.13;;;46.73;;
14167;SDS011;7163;50.626;12.922;2022-08-21T01:03:43;131.87;;;48.40;;
14167;SDS011;7163;50.626;12.922;2022-08-21T01:08:44;115.93;;;47.43;;
14167;SDS011;7163;50.626;12.922;2022-08-21T01:13:44;137.03;;;53.77;;
14167;SDS011;7163;50.626;12.922;2022-08-21T01:18:48;107.67;;;49.40;;
14167;SDS011;7163;50.626;12.922;2022-08-21T01:23:50;146.63;;;57.87;;
14167;SDS011;7163;50.626;12.922;2022-08-21T01:28:57;131.87;;;59.17;;
14167;SDS011;7163;50.626;12.922;2022-08-21T01:34:00;123.83;;;56.90;;
14167;SDS011;7163;50.626;12.922;2022-08-21T01:39:00;120.83;;;58.83;;
14167;SDS011;7163;50.626;12.922;2022-08-21T01:44:02;140.47;;;63.37;;
14167;SDS011;7163;50.626;12.922;2022-08-21T01:49:04;149.63;;;67.83;;
14167;SDS011;7163;50.626;12.922;2022-08-21T01:54:04;278.90;;;76.60;;
14167;SDS011;7163;50.626;12.922;2022-08-21T01:59:04;154.47;;;70.90;;
14167;SDS011;7163;50.626;12.922;2022-08-21T02:04:06;204.87;;;73.43;;
14167;SDS011;7163;50.626;12.922;2022-08-21T02:09:08;176.97;;;72.43;;
14167;SDS011;7163;50.626;12.922;2022-08-21T02:14:11;172.93;;;70.97;;
14167;SDS011;7163;50.626;12.922;2022-08-21T02:19:14;203.57;;;72.47;;
14167;SDS011;7163;50.626;12.922;2022-08-21T02:24:15;191.83;;;68.57;;
14167;SDS011;7163;50.626;12.922;2022-08-21T02:29:15;198.47;;;73.13;;
14167;SDS011;7163;50.626;12.922;2022-08-21T02:34:16;223.50;;;75.10;;
14167;SDS011;7163;50.626;12.922;2022-08-21T02:39:16;198.67;;;68.77;;
14167;SDS011;7163;50.626;12.922;2022-08-21T02:44:17;165.30;;;63.17;;
14167;SDS011;7163;50.626;12.922;2022-08-21T02:49:17;171.10;;;63.50;;
14167;SDS011;7163;50.626;12.922;2022-08-21T02:54:18;151.37;;;60.70;;
14167;SDS011;7163;50.626;12.922;2022-08-21T02:59:18;133.70;;;60.87;;
14167;SDS011;7163;50.626;12.922;2022-08-21T03:04:18;134.03;;;60.10;;
14167;SDS011;7163;50.626;12.922;2022-08-21T03:09:19;127.07;;;59.13;;
14167;SDS011;7163;50.626;12.922;2022-08-21T03:14:20;116.30;;;57.43;;
14167;SDS011;7163;50.626;12.922;2022-08-21T03:19:20;146.13;;;61.17;;
14167;SDS011;7163;50.626;12.922;2022-08-21T03:24:21;135.23;;;58.50;;
14167;SDS011;7163;50.626;12.922;2022-08-21T03:29:21;109.73;;;53.47;;
14167;SDS011;7163;50.626;12.922;2022-08-21T03:34:21;107.73;;;51.27;;
14167;SDS011;7163;50.626;12.922;2022-08-21T03:39:22;109.97;;;49.63;;
14167;SDS011;7163;50.626;12.922;2022-08-21T03:44:22;82.10;;;43.90;;
14167;SDS011;7163;50.626;12.922;2022-08-21T03:49:24;84.53;;;44.33;;
14167;SDS011;7163;50.626;12.922;2022-08-21T03:54:25;120.53;;;45.57;;
14167;SDS011;7163;50.626;12.922;2022-08-21T03:59:26;88.77;;;42.97;;
14167;SDS011;7163;50.626;12.922;2022-08-21T04:04:26;86.57;;;42.70;;
14167;SDS011;7163;50.626;12.922;2022-08-21T04:09:27;82.70;;;43.40;;
14167;SDS011;7163;50.626;12.922;2022-08-21T04:14:28;86.57;;;40.97;;
14167;SDS011;7163;50.626;12.922;2022-08-21T04:19:28;85.13;;;41.57;;
14167;SDS011;7163;50.626;12.922;2022-08-21T04:24:29;77.20;;;40.27;;
14167;SDS011;7163;50.626;12.922;2022-08-21T04:29:29;80.03;;;41.87;;
14167;SDS011;7163;50.626;12.922;2022-08-21T04:34:30;89.63;;;45.50;;
14167;SDS011;7163;50.626;12.922;2022-08-21T04:39:30;88.53;;;44.47;;
14167;SDS011;7163;50.626;12.922;2022-08-21T04:44:30;79.30;;;43.27;;
14167;SDS011;7163;50.626;12.922;2022-08-21T04:49:31;91.97;;;44.33;;
14167;SDS011;7163;50.626;12.922;2022-08-21T04:54:31;90.53;;;45.83;;
14167;SDS011;7163;50.626;12.922;2022-08-21T04:59:35;104.43;;;47.67;;
14167;SDS011;7163;50.626;12.922;2022-08-21T05:04:39;124.63;;;49.77;;
14167;SDS011;7163;50.626;12.922;2022-08-21T05:09:44;105.17;;;43.67;;
14167;SDS011;7163;50.626;12.922;2022-08-21T05:14:45;138.30;;;50.33;;
14167;SDS011;7163;50.626;12.922;2022-08-21T05:19:45;172.03;;;50.67;;
14167;SDS011;7163;50.626;12.922;2022-08-21T05:24:45;113.57;;;49.23;;
14167;SDS011;7163;50.626;12.922;2022-08-21T05:29:46;112.37;;;48.80;;
14167;SDS011;7163;50.626;12.922;2022-08-21T05:34:46;112.77;;;47.33;;
14167;SDS011;7163;50.626;12.922;2022-08-21T05:39:46;116.13;;;51.77;;
14167;SDS011;7163;50.626;12.922;2022-08-21T05:44:47;110.97;;;48.07;;
14167;SDS011;7163;50.626;12.922;2022-08-21T05:49:47;115.63;;;48.83;;
14167;SDS011;7163;50.626;12.922;2022-08-21T05:54:48;105.33;;;47.57;;
14167;SDS011;7163;50.626;12.922;2022-08-21T05:59:49;110.13;;;47.80;;
14167;SDS011;7163;50.626;12.922;2022-08-21T06:04:50;95.70;;;44.90;;
14167;SDS011;7163;50.626;12.922;2022-08-21T06:09:51;103.00;;;44.70;;
14167;SDS011;7163;50.626;12.922;2022-08-21T06:14:52;111.07;;;47.97;;
14167;SDS011;7163;50.626;12.922;2022-08-21T06:19:53;97.57;;;46.40;;
14167;SDS011;7163;50.626;12.922;2022-08-21T06:24:54;105.50;;;46.60;;
14167;SDS011;7163;50.626;12.922;2022-08-21T06:29:54;101.40;;;46.17;;
14167;SDS011;7163;50.626;12.922;2022-08-21T06:34:57;113.90;;;45.55;;
14167;SDS011;7163;50.626;12.922;2022-08-21T06:39:57;119.63;;;50.40;;
14167;SDS011;7163;50.626;12.922;2022-08-21T06:44:58;116.05;;;51.85;;
14167;SDS011;7163;50.626;12.922;2022-08-21T06:49:58;111.10;;;59.80;;
14167;SDS011;7163;50.626;12.922;2022-08-21T06:54:58;69.32;;;40.33;;
14167;SDS011;7163;50.626;12.922;2022-08-21T06:59:59;60.63;;;37.60;;
14167;SDS011;7163;50.626;12.922;2022-08-21T07:04:59;50.70;;;33.38;;
14167;SDS011;7163;50.626;12.922;2022-08-21T07:10:00;45.65;;;32.65;;
14167;SDS011;7163;50.626;12.922;2022-08-21T07:15:01;44.33;;;31.13;;
14167;SDS011;7163;50.626;12.922;2022-08-21T07:20:02;46.97;;;32.42;;
14167;SDS011;7163;50.626;12.922;2022-08-21T07:25:04;45.08;;;32.28;;
14167;SDS011;7163;50.626;12.922;2022-08-21T07:30:05;47.38;;;32.67;;
14167;SDS011;7163;50.626;12.922;2022-08-21T07:35:06;42.30;;;30.65;;
14167;SDS011;7163;50.626;12.922;2022-08-21T07:40:08;44.60;;;33.00;;
14167;SDS011;7163;50.626;12.922;2022-08-21T07:45:08;42.92;;;31.45;;
14167;SDS011;7163;50.626;12.922;2022-08-21T07:50:12;40.47;;;30.25;;
14167;SDS011;7163;50.626;12.922;2022-08-21T07:55:15;34.03;;;27.08;;
14167;SDS011;7163;50.626;12.922;2022-08-21T08:00:18;30.85;;;24.80;;
14167;SDS011;7163;50.626;12.922;2022-08-21T08:05:23;33.70;;;26.65;;
14167;SDS011;7163;50.626;12.922;2022-08-21T08:10:25;31.02;;;22.25;;
14167;SDS011;7163;50.626;12.922;2022-08-21T08:15:26;28.98;;;21.88;;
14167;SDS011;7163;50.626;12.922;2022-08-21T08:20:27;28.13;;;20.77;;
14167;SDS011;7163;50.626;12.922;2022-08-21T08:25:29;29.13;;;20.67;;
14167;SDS011;7163;50.626;12.922;2022-08-21T08:30:29;23.48;;;18.05;;
14167;SDS011;7163;50.626;12.922;2022-08-21T08:35:30;24.02;;;15.90;;
14167;SDS011;7163;50.626;12.922;2022-08-21T08:45:45;18.05;;;13.68;;
14167;SDS011;7163;50.626;12.922;2022-08-21T08:50:49;16.05;;;13.15;;
14167;SDS011;7163;50.626;12.922;2022-08-21T08:55:53;13.60;;;11.18;;
14167;SDS011;7163;50.626;12.922;2022-08-21T09:00:54;14.63;;;11.52;;
14167;SDS011;7163;50.626;12.922;2022-08-21T09:11:07;13.05;;;9.23;;
14167;SDS011;7163;50.626;12.922;2022-08-21T09:27:02;13.23;;;8.68;;
14167;SDS011;7163;50.626;12.922;2022-08-21T09:32:22;10.95;;;6.93;;
14167;SDS011;7163;50.626;12.922;2022-08-21T09:37:25;12.80;;;6.45;;
14167;SDS011;7163;50.626;12.922;2022-08-21T09:42:30;11.20;;;8.00;;
14167;SDS011;7163;50.626;12.922;2022-08-21T09:47:34;12.32;;;9.93;;
14167;SDS011;7163;50.626;12.922;2022-08-21T09:52:41;13.68;;;10.43;;
14167;SDS011;7163;50.626;12.922;2022-08-21T09:57:43;12.13;;;8.73;;
14167;SDS011;7163;50.626;12.922;2022-08-21T10:02:46;15.95;;;8.70;;
14167;SDS011;7163;50.626;12.922;2022-08-21T10:07:46;11.73;;;6.55;;
14167;SDS011;7163;50.626;12.922;2022-08-21T10:18:26;8.13;;;5.50;;
14167;SDS011;7163;50.626;12.922;2022-08-21T10:23:39;8.10;;;4.35;;
14167;SDS011;7163;50.626;12.922;2022-08-21T10:28:49;9.02;;;5.22;;
14167;SDS011;7163;50.626;12.922;2022-08-21T10:39:42;7.32;;;4.00;;
14167;SDS011;7163;50.626;12.922;2022-08-21T10:50:40;6.90;;;3.47;;
14167;SDS011;7163;50.626;12.922;2022-08-21T11:01:20;4.63;;;3.22;;
14167;SDS011;7163;50.626;12.922;2022-08-21T11:06:25;6.47;;;3.35;;
14167;SDS011;7163;50.626;12.922;2022-08-21T11:27:42;7.88;;;3.80;;
14167;SDS011;7163;50.626;12.922;2022-08-21T11:59:32;8.52;;;3.25;;
14167;SDS011;7163;50.626;12.922;2022-08-21T12:04:42;5.18;;;3.22;;
14167;SDS011;7163;50.626;12.922;2022-08-21T12:09:52;9.45;;;3.08;;
14167;SDS011;7163;50.626;12.922;2022-08-21T12:20:21;5.65;;;2.40;;
14167;SDS011;7163;50.626;12.922;2022-08-21T12:25:26;6.20;;;2.80;;
14167;SDS011;7163;50.626;12.922;2022-08-21T12:30:41;4.30;;;2.40;;
14167;SDS011;7163;50.626;12.922;2022-08-21T12:35:44;6.38;;;2.75;;
14167;SDS011;7163;50.626;12.922;2022-08-21T12:45:59;4.80;;;2.78;;
14167;SDS011;7163;50.626;12.922;2022-08-21T12:56:12;5.65;;;2.75;;
14167;SDS011;7163;50.626;12.922;2022-08-21T13:01:24;5.35;;;2.38;;
14167;SDS011;7163;50.626;12.922;2022-08-21T13:06:28;4.65;;;2.88;;
14167;SDS011;7163;50.626;12.922;2022-08-21T13:11:31;4.00;;;2.50;;
14167;SDS011;7163;50.626;12.922;2022-08-21T13:16:32;6.10;;;2.33;;
14167;SDS011;7163;50.626;12.922;2022-08-21T13:21:34;5.95;;;2.80;;
14167;SDS011;7163;50.626;12.922;2022-08-21T13:26:39;5.65;;;2.47;;
14167;SDS011;7163;50.626;12.922;2022-08-21T13:31:40;3.88;;;2.70;;
14167;SDS011;7163;50.626;12.922;2022-08-21T13:36:42;4.88;;;2.67;;
14167;SDS011;7163;50.626;12.922;2022-08-21T13:41:44;6.32;;;2.50;;
14167;SDS011;7163;50.626;12.922;2022-08-21T13:46:47;6.00;;;2.85;;
14167;SDS011;7163;50.626;12.922;2022-08-21T13:51:49;7.20;;;2.65;;
14167;SDS011;7163;50.626;12.922;2022-08-21T13:56:52;7.30;;;2.75;;
14167;SDS011;7163;50.626;12.922;2022-08-21T14:02:26;5.15;;;2.83;;
14167;SDS011;7163;50.626;12.922;2022-08-21T14:07:31;3.80;;;2.60;;
14167;SDS011;7163;50.626;12.922;2022-08-21T14:12:38;4.60;;;2.60;;
14167;SDS011;7163;50.626;12.922;2022-08-21T14:17:42;3.45;;;2.47;;
14167;SDS011;7163;50.626;12.922;2022-08-21T14:22:45;3.88;;;2.85;;
14167;SDS011;7163;50.626;12.922;2022-08-21T14:32:58;4.35;;;2.45;;
14167;SDS011;7163;50.626;12.922;2022-08-21T14:37:59;4.32;;;2.28;;
14167;SDS011;7163;50.626;12.922;2022-08-21T14:43:00;4.38;;;2.33;;
14167;SDS011;7163;50.626;12.922;2022-08-21T14:48:00;5.05;;;2.72;;
14167;SDS011;7163;50.626;12.922;2022-08-21T14:53:01;7.63;;;2.50;;
14167;SDS011;7163;50.626;12.922;2022-08-21T14:58:01;6.05;;;2.50;;
14167;SDS011;7163;50.626;12.922;2022-08-21T15:03:02;6.03;;;2.73;;
14167;SDS011;7163;50.626;12.922;2022-08-21T15:08:02;4.22;;;2.45;;
14167;SDS011;7163;50.626;12.922;2022-08-21T15:13:04;4.85;;;2.67;;
14167;SDS011;7163;50.626;12.922;2022-08-21T15:18:05;4.18;;;2.67;;
14167;SDS011;7163;50.626;12.922;2022-08-21T15:23:06;3.80;;;2.63;;
14167;SDS011;7163;50.626;12.922;2022-08-21T15:28:07;6.63;;;2.72;;
14167;SDS011;7163;50.626;12.922;2022-08-21T15:33:08;6.70;;;2.63;;
14167;SDS011;7163;50.626;12.922;2022-08-21T15:38:09;5.55;;;3.03;;
14167;SDS011;7163;50.626;12.922;2022-08-21T15:43:21;5.47;;;3.03;;
14167;SDS011;7163;50.626;12.922;2022-08-21T15:48:24;4.40;;;3.00;;
14167;SDS011;7163;50.626;12.922;2022-08-21T15:53:24;4.68;;;2.75;;
14167;SDS011;7163;50.626;12.922;2022-08-21T15:58:24;8.07;;;3.20;;
14167;SDS011;7163;50.626;12.922;2022-08-21T16:03:25;5.43;;;3.55;;
14167;SDS011;7163;50.626;12.922;2022-08-21T16:08:26;5.57;;;2.60;;
14167;SDS011;7163;50.626;12.922;2022-08-21T16:13:32;4.53;;;2.93;;
14167;SDS011;7163;50.626;12.922;2022-08-21T16:18:36;6.00;;;2.92;;
14167;SDS011;7163;50.626;12.922;2022-08-21T16:23:37;6.32;;;2.88;;
14167;SDS011;7163;50.626;12.922;2022-08-21T16:28:40;4.50;;;2.65;;
14167;SDS011;7163;50.626;12.922;2022-08-21T16:33:42;4.82;;;2.97;;
14167;SDS011;7163;50.626;12.922;2022-08-21T16:38:45;4.25;;;2.78;;
14167;SDS011;7163;50.626;12.922;2022-08-21T16:43:47;4.75;;;2.83;;
14167;SDS011;7163;50.626;12.922;2022-08-21T16:48:49;5.57;;;3.20;;
14167;SDS011;7163;50.626;12.922;2022-08-21T16:53:50;2.60;;;2.13;;
14167;SDS011;7163;50.626;12.922;2022-08-21T16:58:52;5.18;;;2.60;;
14167;SDS011;7163;50.626;12.922;2022-08-21T17:03:53;5.30;;;2.70;;
14167;SDS011;7163;50.626;12.922;2022-08-21T17:08:53;5.55;;;2.75;;
14167;SDS011;7163;50.626;12.922;2022-08-21T17:13:54;5.88;;;2.50;;
14167;SDS011;7163;50.626;12.922;2022-08-21T17:18:55;7.20;;;2.45;;
14167;SDS011;7163;50.626;12.922;2022-08-21T17:23:56;7.30;;;2.30;;
14167;SDS011;7163;50.626;12.922;2022-08-21T17:28:56;7.38;;;3.08;;
14167;SDS011;7163;50.626;12.922;2022-08-21T17:33:57;5.38;;;2.70;;
14167;SDS011;7163;50.626;12.922;2022-08-21T17:38:58;4.28;;;2.55;;
14167;SDS011;7163;50.626;12.922;2022-08-21T17:43:59;4.78;;;3.00;;
14167;SDS011;7163;50.626;12.922;2022-08-21T17:49:06;6.50;;;3.38;;
14167;SDS011;7163;50.626;12.922;2022-08-21T17:54:07;6.10;;;2.90;;
14167;SDS011;7163;50.626;12.922;2022-08-21T17:59:08;7.50;;;3.15;;
14167;SDS011;7163;50.626;12.922;2022-08-21T18:04:09;8.10;;;3.38;;
14167;SDS011;7163;50.626;12.922;2022-08-21T18:09:10;8.45;;;3.15;;
14167;SDS011;7163;50.626;12.922;2022-08-21T18:14:12;8.50;;;3.42;;
14167;SDS011;7163;50.626;12.922;2022-08-21T18:19:12;6.63;;;3.83;;
14167;SDS011;7163;50.626;12.922;2022-08-21T18:24:16;6.67;;;4.50;;
14167;SDS011;7163;50.626;12.922;2022-08-21T18:29:17;7.70;;;4.70;;
14167;SDS011;7163;50.626;12.922;2022-08-21T18:34:24;8.57;;;5.20;;
14167;SDS011;7163;50.626;12.922;2022-08-21T18:39:26;7.90;;;4.50;;
14167;SDS011;7163;50.626;12.922;2022-08-21T18:44:27;8.80;;;4.53;;
14167;SDS011;7163;50.626;12.922;2022-08-21T18:49:28;11.13;;;5.33;;
14167;SDS011;7163;50.626;12.922;2022-08-21T18:54:30;10.47;;;5.10;;
14167;SDS011;7163;50.626;12.922;2022-08-21T18:59:31;9.73;;;5.27;;
14167;SDS011;7163;50.626;12.922;2022-08-21T19:04:33;10.03;;;5.53;;
14167;SDS011;7163;50.626;12.922;2022-08-21T19:09:34;11.37;;;6.57;;
14167;SDS011;7163;50.626;12.922;2022-08-21T19:14:34;11.50;;;5.67;;
14167;SDS011;7163;50.626;12.922;2022-08-21T19:19:35;10.73;;;5.97;;
14167;SDS011;7163;50.626;12.922;2022-08-21T19:24:35;12.07;;;5.03;;
14167;SDS011;7163;50.626;12.922;2022-08-21T19:29:37;7.23;;;4.60;;
14167;SDS011;7163;50.626;12.922;2022-08-21T19:34:37;10.40;;;5.60;;
14167;SDS011;7163;50.626;12.922;2022-08-21T19:39:39;8.30;;;4.90;;
14167;SDS011;7163;50.626;12.922;2022-08-21T19:44:39;18.67;;;6.13;;
14167;SDS011;7163;50.626;12.922;2022-08-21T19:49:40;10.80;;;6.17;;
14167;SDS011;7163;50.626;12.922;2022-08-21T19:54:44;11.47;;;6.23;;
14167;SDS011;7163;50.626;12.922;2022-08-21T19:59:45;10.57;;;6.63;;
14167;SDS011;7163;50.626;12.922;2022-08-21T20:04:46;11.83;;;8.03;;
14167;SDS011;7163;50.626;12.922;2022-08-21T20:09:46;11.97;;;7.77;;
14167;SDS011;7163;50.626;12.922;2022-08-21T20:14:47;10.70;;;7.90;;
14167;SDS011;7163;50.626;12.922;2022-08-21T20:19:47;11.33;;;7.03;;
14167;SDS011;7163;50.626;12.922;2022-08-21T20:24:48;8.50;;;6.10;;
14167;SDS011;7163;50.626;12.922;2022-08-21T20:29:49;9.83;;;5.80;;
14167;SDS011;7163;50.626;12.922;2022-08-21T20:34:50;8.70;;;6.20;;
14167;SDS011;7163;50.626;12.922;2022-08-21T20:39:51;8.43;;;6.20;;
14167;SDS011;7163;50.626;12.922;2022-08-21T20:44:51;7.63;;;5.80;;
14167;SDS011;7163;50.626;12.922;2022-08-21T20:49:53;10.53;;;5.87;;
14167;SDS011;7163;50.626;12.922;2022-08-21T20:54:59;9.67;;;5.83;;
14167;SDS011;7163;50.626;12.922;2022-08-21T21:00:09;9.53;;;5.80;;
14167;SDS011;7163;50.626;12.922;2022-08-21T21:05:26;8.57;;;6.27;;
14167;SDS011;7163;50.626;12.922;2022-08-21T21:10:31;9.27;;;7.13;;
14167;SDS011;7163;50.626;12.922;2022-08-21T21:15:36;11.30;;;5.87;;
14167;SDS011;7163;50.626;12.922;2022-08-21T21:20:43;8.43;;;5.60;;
14167;SDS011;7163;50.626;12.922;2022-08-21T21:26:10;9.53;;;5.60;;
14167;SDS011;7163;50.626;12.922;2022-08-21T21:31:11;11.83;;;5.57;;
14167;SDS011;7163;50.626;12.922;2022-08-21T21:36:18;7.90;;;5.83;;
14167;SDS011;7163;50.626;12.922;2022-08-21T21:41:30;9.47;;;5.70;;
14167;SDS011;7163;50.626;12.922;2022-08-21T21:46:52;9.73;;;5.93;;
14167;SDS011;7163;50.626;12.922;2022-08-21T21:57:46;7.80;;;5.07;;
14167;SDS011;7163;50.626;12.922;2022-08-21T22:02:57;14.07;;;6.37;;
14167;SDS011;7163;50.626;12.922;2022-08-21T22:18:38;12.50;;;5.75;;
14167;SDS011;7163;50.626;12.922;2022-08-21T22:23:43;12.07;;;5.50;;
14167;SDS011;7163;50.626;12.922;2022-08-21T22:28:47;9.27;;;5.70;;
14167;SDS011;7163;50.626;12.922;2022-08-21T22:39:29;11.83;;;5.97;;
14167;SDS011;7163;50.626;12.922;2022-08-21T22:44:31;10.10;;;5.70;;
14167;SDS011;7163;50.626;12.922;2022-08-21T22:49:36;12.77;;;5.73;;
14167;SDS011;7163;50.626;12.922;2022-08-21T22:54:41;6.40;;;5.07;;
14167;SDS011;7163;50.626;12.922;2022-08-21T22:59:59;10.60;;;6.03;;
14167;SDS011;7163;50.626;12.922;2022-08-21T23:10:26;10.83;;;5.63;;
14167;SDS011;7163;50.626;12.922;2022-08-21T23:15:35;8.43;;;5.73;;
14167;SDS011;7163;50.626;12.922;2022-08-21T23:26:25;9.50;;;5.53;;
14167;SDS011;7163;50.626;12.922;2022-08-21T23:31:41;9.67;;;5.87;;
14167;SDS011;7163;50.626;12.922;2022-08-21T23:37:07;11.33;;;5.83;;
14167;SDS011;7163;50.626;12.922;2022-08-21T23:43:37;7.87;;;6.00;;
14167;SDS011;7163;50.626;12.922;2022-08-21T23:48:34;11.03;;;5.33;;
14167;SDS011;7163;50.626;12.922;2022-08-21T23:54:14;10.97;;;5.17;;
14167;SDS011;7163;50.626;12.922;2022-08-21T23:59:25;9.00;;;6.00;;
